createdAt,value
2023-01-07T00:01:39.986Z,6.17
2023-01-07T00:04:13.331Z,6.00
2023-01-07T00:06:43.236Z,6.07
2023-01-07T00:09:16.860Z,6.08
2023-01-07T00:11:45.456Z,5.99
2023-01-07T00:14:14.551Z,5.98
2023-01-07T00:16:42.697Z,6.09
2023-01-07T00:19:14.948Z,6.01
2023-01-07T00:21:43.105Z,5.98
2023-01-07T00:24:12.245Z,6.03
2023-01-07T00:26:40.688Z,5.87
2023-01-07T00:29:09.548Z,5.68
2023-01-07T00:31:40.836Z,5.70
2023-01-07T00:34:09.517Z,5.73
2023-01-07T00:36:42.935Z,5.55
2023-01-07T00:39:18.071Z,5.69
2023-01-07T00:42:04.663Z,5.26
2023-01-07T00:44:32.695Z,4.65
2023-01-07T00:47:00.923Z,4.63
2023-01-07T00:49:28.500Z,4.36
2023-01-07T00:51:56.029Z,4.20
2023-01-07T00:54:24.644Z,4.16
2023-01-07T00:56:52.189Z,4.17
2023-01-07T00:59:19.827Z,4.33
2023-01-07T01:01:47.785Z,4.15
2023-01-07T01:04:15.764Z,4.14
2023-01-07T01:06:43.278Z,3.84
2023-01-07T01:09:10.762Z,4.26
2023-01-07T01:11:38.266Z,3.87
2023-01-07T01:14:05.756Z,3.56
2023-01-07T01:16:33.207Z,3.45
2023-01-07T01:19:00.712Z,3.52
2023-01-07T01:21:28.590Z,3.29
2023-01-07T01:23:56.113Z,3.18
2023-01-07T01:26:23.592Z,3.23
2023-01-07T01:28:51.017Z,3.08
2023-01-07T01:31:23.039Z,2.97
2023-01-07T01:33:56.658Z,3.02
2023-01-07T01:36:24.982Z,3.01
2023-01-07T01:38:55.347Z,2.91
2023-01-07T01:41:23.011Z,2.75
2023-01-07T01:43:53.113Z,2.90
2023-01-07T01:46:35.716Z,2.85
2023-01-07T01:49:24.290Z,2.64
2023-01-07T01:52:14.006Z,2.71
2023-01-07T01:54:45.945Z,2.53
2023-01-07T01:57:13.901Z,2.60
2023-01-07T01:59:45.707Z,2.89
2023-01-07T02:02:29.908Z,3.08
2023-01-07T02:04:58.322Z,3.18
2023-01-07T02:07:25.910Z,3.14
2023-01-07T02:10:10.399Z,3.15
2023-01-07T02:13:17.674Z,2.90
2023-01-07T02:16:03.861Z,2.86
2023-01-07T02:18:51.890Z,2.81
2023-01-07T02:21:56.873Z,2.88
2023-01-07T02:24:30.216Z,3.02
2023-01-07T02:27:51.210Z,3.30
2023-01-07T02:30:48.767Z,3.40
2023-01-07T02:33:44.556Z,3.20
2023-01-07T02:36:30.574Z,3.20
2023-01-07T02:39:26.170Z,3.29
2023-01-07T02:42:04.472Z,3.32
2023-01-07T02:44:59.952Z,3.32
2023-01-07T02:47:39.840Z,3.36
2023-01-07T02:50:09.381Z,3.42
2023-01-07T02:52:37.897Z,3.32
2023-01-07T02:55:23.000Z,3.27
2023-01-07T02:58:22.669Z,3.36
2023-01-07T03:01:28.613Z,3.46
2023-01-07T03:04:40.601Z,3.42
2023-01-07T03:07:16.401Z,3.33
2023-01-07T03:10:11.619Z,3.34
2023-01-07T03:13:14.380Z,3.28
2023-01-07T03:24:09.337Z,2.86
2023-01-07T03:26:46.607Z,2.50
2023-01-07T03:29:17.928Z,2.42
2023-01-07T03:32:19.910Z,2.35
2023-01-07T03:34:48.351Z,2.50
2023-01-07T03:37:20.682Z,2.42
2023-01-07T03:39:49.034Z,2.41
2023-01-07T03:42:42.387Z,2.36
2023-01-07T03:45:20.336Z,2.16
2023-01-07T03:47:52.417Z,2.24
2023-01-07T03:50:21.466Z,2.26
2023-01-07T03:52:50.954Z,2.34
2023-01-07T03:55:20.320Z,2.24
2023-01-07T03:57:49.684Z,2.27
2023-01-07T04:00:18.094Z,2.35
2023-01-07T04:02:53.611Z,2.48
2023-01-07T04:05:25.469Z,2.42
2023-01-07T04:07:53.407Z,2.34
2023-01-07T04:10:21.795Z,2.41
2023-01-07T04:12:49.313Z,2.54
2023-01-07T04:15:16.958Z,2.45
2023-01-07T04:17:44.491Z,2.37
2023-01-07T04:20:12.365Z,2.44
2023-01-07T04:22:39.890Z,2.37
2023-01-07T04:25:08.883Z,2.35
2023-01-07T04:27:37.937Z,2.42
2023-01-07T04:30:06.567Z,2.50
2023-01-07T04:32:34.973Z,2.35
2023-01-07T04:35:02.820Z,2.23
2023-01-07T04:37:31.487Z,2.25
2023-01-07T04:39:59.455Z,2.36
2023-01-07T04:42:27.305Z,2.44
2023-01-07T04:44:55.196Z,2.31
2023-01-07T04:47:23.356Z,2.31
2023-01-07T04:49:51.512Z,2.13
2023-01-07T04:52:19.010Z,2.11
2023-01-07T04:54:46.957Z,1.93
2023-01-07T04:57:14.673Z,2.18
2023-01-07T04:59:44.520Z,2.09
2023-01-07T05:02:12.148Z,2.08
2023-01-07T05:04:40.172Z,2.15
2023-01-07T05:07:09.621Z,2.29
2023-01-07T05:09:37.203Z,2.21
2023-01-07T05:12:05.124Z,2.13
2023-01-07T05:14:32.954Z,2.13
2023-01-07T05:17:00.620Z,2.14
2023-01-07T05:19:30.015Z,2.14
2023-01-07T05:21:58.560Z,2.13
2023-01-07T05:24:27.174Z,2.21
2023-01-07T05:26:54.840Z,2.15
2023-01-07T05:29:23.072Z,2.18
2023-01-07T05:31:50.585Z,2.15
2023-01-07T05:34:18.766Z,2.03
2023-01-07T05:36:46.753Z,1.89
2023-01-07T05:39:15.006Z,1.96
2023-01-07T05:41:43.089Z,2.07
2023-01-07T05:44:11.262Z,2.08
2023-01-07T05:46:38.711Z,2.22
2023-01-07T05:49:09.055Z,2.30
2023-01-07T05:51:36.866Z,2.25
2023-01-07T05:54:04.910Z,2.05
2023-01-07T05:56:32.423Z,1.88
2023-01-07T05:58:59.877Z,1.89
2023-01-07T06:01:28.836Z,1.73
2023-01-07T06:03:57.512Z,1.84
2023-01-07T06:06:25.044Z,1.80
2023-01-07T06:08:52.526Z,1.96
2023-01-07T06:11:20.110Z,1.88
2023-01-07T06:13:49.187Z,1.91
2023-01-07T06:16:16.879Z,2.04
2023-01-07T06:18:44.384Z,2.17
2023-01-07T06:21:12.011Z,2.13
2023-01-07T06:23:39.582Z,2.21
2023-01-07T06:26:07.053Z,2.30
2023-01-07T06:28:35.465Z,2.53
2023-01-07T06:31:03.078Z,2.72
2023-01-07T06:33:32.649Z,2.78
2023-01-07T06:36:00.857Z,2.99
2023-01-07T06:38:28.337Z,3.06
2023-01-07T06:40:55.859Z,3.25
2023-01-07T06:43:25.561Z,3.38
2023-01-07T06:45:53.242Z,3.42
2023-01-07T06:48:20.737Z,3.28
2023-01-07T06:50:48.213Z,3.08
2023-01-07T06:53:16.222Z,3.19
2023-01-07T06:55:51.949Z,3.40
2023-01-07T06:58:19.800Z,3.54
2023-01-07T07:00:47.439Z,3.73
2023-01-07T07:03:14.954Z,3.76
2023-01-07T07:05:44.338Z,3.88
2023-01-07T07:08:11.858Z,3.99
2023-01-07T07:10:39.566Z,4.02
2023-01-07T07:13:07.100Z,4.14
2023-01-07T07:15:34.605Z,4.22
2023-01-07T07:18:03.437Z,4.48
2023-01-07T07:20:32.484Z,4.67
2023-01-07T07:23:01.900Z,4.80
2023-01-07T07:25:29.757Z,4.94
2023-01-07T07:27:57.240Z,5.13
2023-01-07T07:30:47.286Z,5.28
2023-01-07T07:33:14.876Z,5.43
2023-01-07T07:35:43.741Z,5.42
2023-01-07T07:38:11.412Z,5.81
2023-01-07T07:40:38.948Z,5.90
2023-01-07T07:43:11.628Z,6.08
2023-01-07T07:45:41.562Z,6.19
2023-01-07T07:48:10.799Z,6.21
2023-01-07T07:50:38.386Z,6.41
2023-01-07T07:53:09.998Z,6.46
2023-01-07T07:55:39.601Z,6.42
2023-01-07T07:58:07.262Z,6.62
2023-01-07T08:00:34.790Z,6.95
2023-01-07T08:03:02.554Z,7.28
2023-01-07T08:05:31.247Z,7.52
2023-01-07T08:07:58.849Z,7.77
2023-01-07T08:10:30.053Z,7.75
2023-01-07T08:12:57.725Z,7.92
2023-01-07T08:15:25.317Z,8.32
2023-01-07T08:18:07.179Z,7.98
2023-01-07T08:20:37.759Z,8.24
2023-01-07T08:23:08.034Z,8.30
2023-01-07T08:25:37.237Z,8.32
2023-01-07T08:28:05.306Z,8.50
2023-01-07T08:30:33.143Z,8.56
2023-01-07T08:33:03.339Z,8.72
2023-01-07T08:35:31.100Z,8.99
2023-01-07T08:38:09.136Z,9.26
2023-01-07T08:40:47.017Z,9.56
2023-01-07T08:43:15.306Z,9.58
2023-01-07T08:45:49.787Z,9.62
2023-01-07T08:48:17.397Z,10.23
2023-01-07T08:50:48.645Z,10.09
2023-01-07T08:53:16.231Z,10.05
2023-01-07T08:55:43.718Z,10.28
2023-01-07T08:58:11.344Z,10.63
2023-01-07T09:00:40.408Z,10.76
2023-01-07T09:03:07.954Z,10.72
2023-01-07T09:05:35.765Z,10.88
2023-01-07T09:08:03.866Z,11.13
2023-01-07T09:10:31.682Z,11.33
2023-01-07T09:12:59.226Z,11.49
2023-01-07T09:15:26.784Z,11.56
2023-01-07T09:17:54.348Z,11.86
2023-01-07T09:20:22.214Z,12.05
2023-01-07T09:22:49.750Z,12.45
2023-01-07T09:25:17.396Z,12.60
2023-01-07T09:27:45.887Z,12.77
2023-01-07T09:30:13.551Z,13.14
2023-01-07T09:32:43.088Z,13.40
2023-01-07T09:35:11.670Z,13.26
2023-01-07T09:37:39.358Z,13.30
2023-01-07T09:40:09.090Z,13.06
2023-01-07T09:42:44.128Z,13.43
2023-01-07T09:45:16.838Z,13.67
2023-01-07T09:47:48.466Z,14.10
2023-01-07T09:50:45.386Z,14.23
2023-01-07T09:53:37.962Z,14.53
2023-01-07T09:56:26.950Z,14.45
2023-01-07T09:59:15.424Z,14.21
2023-01-07T10:56:37.460Z,12.78
2023-01-07T10:59:05.942Z,13.08
2023-01-07T11:01:40.409Z,13.31
2023-01-07T11:04:16.669Z,13.67
2023-01-07T11:06:56.439Z,14.89
2023-01-07T11:09:35.074Z,16.21
2023-01-07T11:12:29.242Z,16.76
2023-01-07T11:14:59.893Z,17.40
2023-01-07T11:17:53.509Z,17.98
2023-01-07T11:20:46.857Z,18.93
2023-01-07T11:23:32.240Z,18.70
2023-01-07T11:26:23.732Z,18.29
2023-01-07T11:28:55.197Z,17.48
2023-01-07T11:31:51.992Z,17.31
2023-01-07T11:35:01.792Z,16.77
2023-01-07T11:37:41.131Z,16.85
2023-01-07T11:40:14.824Z,17.12
2023-01-07T11:42:56.259Z,17.36
2023-01-07T11:46:19.588Z,17.72
2023-01-07T11:49:02.769Z,18.52
2023-01-07T11:52:00.207Z,19.13
2023-01-07T11:54:31.322Z,19.97
2023-01-07T11:57:25.501Z,20.69
2023-01-07T12:00:19.529Z,20.51
2023-01-07T12:03:01.961Z,20.17
2023-01-07T12:05:31.796Z,19.73
2023-01-07T12:07:59.826Z,19.15
2023-01-07T12:10:39.935Z,19.28
2023-01-07T12:13:21.799Z,19.92
2023-01-07T12:16:02.034Z,20.08
2023-01-07T12:18:47.986Z,20.35
2023-01-07T12:21:36.219Z,20.61
2023-01-07T12:24:49.856Z,20.33
2023-01-07T12:27:50.999Z,20.15
2023-01-07T12:30:55.823Z,19.82
2023-01-07T12:34:10.130Z,20.08
2023-01-07T12:37:01.229Z,20.04
2023-01-07T12:39:47.306Z,20.45
2023-01-07T12:42:32.543Z,20.35
2023-01-07T12:45:07.493Z,20.78
2023-01-07T12:47:50.585Z,20.61
2023-01-07T12:50:45.468Z,20.82
2023-01-07T12:53:41.272Z,21.39
2023-01-07T12:56:52.933Z,22.02
2023-01-07T12:59:45.579Z,22.35
2023-01-07T13:02:30.883Z,22.44
2023-01-07T13:05:39.520Z,22.52
2023-01-07T13:08:24.136Z,22.73
2023-01-07T13:11:18.028Z,23.12
2023-01-07T13:13:55.382Z,23.42
2023-01-07T13:16:24.616Z,23.25
2023-01-07T13:18:52.286Z,23.32
2023-01-07T13:21:21.863Z,23.57
2023-01-07T13:24:13.075Z,23.77
2023-01-07T13:26:56.704Z,23.80
2023-01-07T13:30:05.498Z,23.84
2023-01-07T13:33:16.055Z,23.70
2023-01-07T13:36:04.951Z,23.94
2023-01-07T13:39:00.954Z,23.91
2023-01-07T13:42:08.640Z,24.18
2023-01-07T13:44:36.117Z,24.50
2023-01-07T13:47:05.795Z,24.56
2023-01-07T13:49:35.701Z,24.84
2023-01-07T13:52:26.083Z,24.29
2023-01-07T13:54:58.163Z,24.58
2023-01-07T13:57:31.871Z,24.46
2023-01-07T14:00:05.307Z,24.28
2023-01-07T14:03:17.450Z,23.92
2023-01-07T14:05:45.453Z,23.76
2023-01-07T14:08:12.938Z,23.53
2023-01-07T14:10:40.672Z,23.38
2023-01-07T14:13:50.328Z,23.90
2023-01-07T14:16:44.706Z,24.00
2023-01-07T14:19:21.946Z,23.98
2023-01-07T14:22:22.158Z,24.13
2023-01-07T14:25:01.816Z,24.15
2023-01-07T14:27:41.041Z,24.01
2023-01-07T14:30:31.253Z,23.97
2023-01-07T14:33:06.984Z,23.39
2023-01-07T14:35:40.746Z,21.92
2023-01-07T14:38:32.537Z,20.40
2023-01-07T14:41:09.370Z,19.25
2023-01-07T14:43:45.910Z,18.51
2023-01-07T14:46:49.528Z,17.96
2023-01-07T14:49:54.256Z,17.63
2023-01-07T14:52:58.836Z,17.17
2023-01-07T14:55:38.543Z,16.93
2023-01-07T14:58:34.542Z,16.56
2023-01-07T15:01:17.126Z,16.09
2023-01-07T15:04:02.258Z,15.76
2023-01-07T15:06:41.944Z,15.51
2023-01-07T15:09:33.218Z,15.22
2023-01-07T15:12:32.674Z,14.89
2023-01-07T15:15:36.082Z,14.69
2023-01-07T15:18:08.840Z,14.56
2023-01-07T15:21:24.060Z,14.35
2023-01-07T15:24:28.786Z,14.04
2023-01-07T15:27:06.477Z,13.85
2023-01-07T15:30:24.059Z,13.66
2023-01-07T15:33:30.829Z,13.47
2023-01-07T15:35:58.817Z,13.22
2023-01-07T15:38:46.094Z,13.17
2023-01-07T15:41:26.800Z,13.02
2023-01-07T15:43:57.035Z,12.83
2023-01-07T15:46:26.771Z,12.80
2023-01-07T15:49:29.566Z,12.76
2023-01-07T15:52:00.562Z,12.61
2023-01-07T15:54:28.169Z,12.71
2023-01-07T15:57:09.911Z,12.51
2023-01-07T15:59:50.221Z,12.37
2023-01-07T16:02:32.924Z,12.20
2023-01-07T16:05:27.782Z,12.08
2023-01-07T16:08:00.256Z,11.80
2023-01-07T16:10:35.146Z,11.86
2023-01-07T16:13:18.530Z,11.93
2023-01-07T16:15:46.113Z,11.86
2023-01-07T16:18:14.776Z,11.77
2023-01-07T16:20:56.957Z,11.60
2023-01-07T16:23:34.438Z,11.54
2023-01-07T16:26:20.216Z,11.47
2023-01-07T16:29:06.619Z,11.30
2023-01-07T16:31:36.392Z,11.21
2023-01-07T16:34:25.795Z,11.18
2023-01-07T16:36:58.296Z,11.25
2023-01-07T16:39:34.308Z,11.16
2023-01-07T16:42:20.959Z,11.09
2023-01-07T16:44:49.661Z,11.02
2023-01-07T16:47:24.066Z,10.83
2023-01-07T16:50:13.635Z,10.77
2023-01-07T16:52:57.380Z,10.61
2023-01-07T16:56:14.723Z,10.38
2023-01-07T16:58:55.424Z,10.36
2023-01-07T17:01:35.482Z,10.34
2023-01-07T17:04:10.232Z,10.37
2023-01-07T17:06:43.634Z,10.21
2023-01-07T17:09:35.611Z,10.00
2023-01-07T17:12:05.094Z,10.07
2023-01-07T17:14:38.188Z,9.99
2023-01-07T17:17:19.540Z,9.86
2023-01-07T17:19:52.995Z,9.72
2023-01-07T17:22:50.119Z,9.51
2023-01-07T17:25:28.846Z,9.62
2023-01-07T17:28:07.503Z,9.55
2023-01-07T17:30:36.896Z,9.35
2023-01-07T17:33:05.870Z,9.33
2023-01-07T17:35:33.871Z,9.23
2023-01-07T17:38:01.865Z,9.25
2023-01-07T17:40:30.260Z,9.25
2023-01-07T17:43:16.434Z,9.03
2023-01-07T17:45:45.234Z,8.93
2023-01-07T17:48:14.653Z,8.74
2023-01-07T17:50:43.738Z,8.66
2023-01-07T17:53:25.753Z,8.45
2023-01-07T17:55:54.428Z,8.46
2023-01-07T17:58:30.469Z,8.45
2023-01-07T18:01:00.922Z,8.28
2023-01-07T18:03:29.268Z,8.34
2023-01-07T18:05:57.757Z,8.37
2023-01-07T18:08:26.803Z,8.38
2023-01-07T18:11:16.456Z,8.33
2023-01-07T18:13:43.979Z,8.32
2023-01-07T18:16:14.350Z,8.31
2023-01-07T18:18:42.131Z,7.58
2023-01-07T18:21:13.257Z,7.21
2023-01-07T18:23:40.888Z,7.23
2023-01-07T18:26:09.049Z,6.94
2023-01-07T18:28:36.520Z,6.83
2023-01-07T18:31:04.728Z,6.71
2023-01-07T18:33:33.711Z,6.75
2023-01-07T18:36:01.940Z,6.75
2023-01-07T18:38:30.412Z,6.74
2023-01-07T18:41:00.236Z,6.77
2023-01-07T18:43:30.334Z,6.86
2023-01-07T18:46:00.869Z,6.81
2023-01-07T18:48:31.220Z,6.83
2023-01-07T18:51:00.132Z,6.88
2023-01-07T18:53:29.919Z,6.95
2023-01-07T18:56:02.534Z,7.07
2023-01-07T18:58:30.252Z,6.97
2023-01-07T19:01:06.667Z,7.03
2023-01-07T19:03:37.158Z,6.86
2023-01-07T19:06:15.145Z,6.94
2023-01-07T19:08:42.702Z,6.96
2023-01-07T19:11:16.936Z,7.04
2023-01-07T19:13:46.290Z,6.86
2023-01-07T19:16:14.859Z,6.85
2023-01-07T19:18:44.182Z,6.76
2023-01-07T19:21:17.196Z,6.73
2023-01-07T19:23:48.961Z,6.67
2023-01-07T19:26:16.546Z,6.61
2023-01-07T19:28:44.186Z,6.58
2023-01-07T19:31:11.722Z,6.66
2023-01-07T19:33:41.473Z,6.63
2023-01-07T19:36:13.290Z,6.45
2023-01-07T19:38:47.302Z,6.47
2023-01-07T19:41:21.228Z,6.49
2023-01-07T19:43:52.576Z,6.47
2023-01-07T19:46:20.780Z,6.36
2023-01-07T19:48:48.783Z,6.43
2023-01-07T19:51:20.739Z,6.36
2023-01-07T19:53:48.269Z,6.26
2023-01-07T19:56:15.835Z,6.03
2023-01-07T19:58:43.522Z,5.87
2023-01-07T20:01:17.978Z,5.66
2023-01-07T20:03:47.402Z,5.59
2023-01-07T20:06:18.516Z,5.42
2023-01-07T20:08:50.921Z,5.52
2023-01-07T20:11:19.509Z,5.59
2023-01-07T20:13:48.498Z,5.56
2023-01-07T20:16:22.703Z,5.44
2023-01-07T20:18:53.429Z,5.47
2023-01-07T20:21:25.921Z,5.46
2023-01-07T20:23:57.069Z,5.29
2023-01-07T20:26:30.548Z,5.21
2023-01-07T20:28:59.976Z,5.33
2023-01-07T20:31:32.414Z,5.42
2023-01-07T20:34:02.363Z,5.30
2023-01-07T20:36:33.429Z,5.30
2023-01-07T20:39:06.314Z,5.24
2023-01-07T20:41:39.721Z,5.17
2023-01-07T20:44:20.033Z,5.27
2023-01-07T20:46:48.924Z,5.23
2023-01-07T20:49:19.841Z,5.14
2023-01-07T20:51:50.835Z,5.07
2023-01-07T20:54:21.787Z,5.19
2023-01-07T20:56:50.808Z,5.25
2023-01-07T20:59:21.378Z,5.18
2023-01-07T21:01:50.227Z,5.15
2023-01-07T21:04:17.857Z,5.27
2023-01-07T21:06:48.069Z,5.12
2023-01-07T21:09:20.150Z,4.96
2023-01-07T21:11:47.718Z,4.79
2023-01-07T21:14:16.376Z,4.93
2023-01-07T21:16:48.492Z,4.98
2023-01-07T21:19:16.031Z,4.93
2023-01-07T21:21:45.755Z,4.90
2023-01-07T21:24:17.589Z,4.88
2023-01-07T21:26:45.224Z,4.93
2023-01-07T21:29:14.108Z,4.99
2023-01-07T21:31:42.404Z,4.89
2023-01-07T21:34:10.481Z,5.07
2023-01-07T21:36:39.045Z,4.99
2023-01-07T21:39:07.672Z,5.02
2023-01-07T21:41:35.168Z,4.94
2023-01-07T21:44:13.355Z,4.93
2023-01-07T21:46:41.025Z,4.90
2023-01-07T21:49:08.717Z,4.82
2023-01-07T21:51:36.304Z,4.88
2023-01-07T21:54:03.940Z,4.89
2023-01-07T21:56:32.982Z,4.87
2023-01-07T21:59:00.883Z,4.91
2023-01-07T22:01:31.462Z,5.03
2023-01-07T22:04:00.657Z,4.96
2023-01-07T22:06:32.163Z,4.82
2023-01-07T22:09:05.908Z,4.90
2023-01-07T22:11:35.726Z,4.93
2023-01-07T22:14:03.530Z,5.03
2023-01-07T22:16:34.295Z,4.93
2023-01-07T22:19:01.956Z,4.84
2023-01-07T22:21:30.333Z,4.80
2023-01-07T22:23:57.870Z,4.84
2023-01-07T22:26:25.307Z,4.94
2023-01-07T22:28:56.436Z,4.83
2023-01-07T22:31:31.278Z,4.74
2023-01-07T22:33:59.082Z,4.74
2023-01-07T22:36:39.768Z,4.73
2023-01-07T22:39:23.259Z,4.83
2023-01-07T22:41:56.385Z,4.76
2023-01-07T22:44:37.903Z,4.78
2023-01-07T22:47:09.187Z,4.71
2023-01-07T22:49:37.290Z,4.66
2023-01-07T22:52:05.741Z,4.76
2023-01-07T22:54:33.876Z,4.46
2023-01-07T22:57:02.123Z,4.31
2023-01-07T22:59:30.115Z,4.16
2023-01-07T23:01:57.959Z,4.19
2023-01-07T23:04:25.515Z,4.08
2023-01-07T23:06:53.075Z,4.03
2023-01-07T23:09:21.055Z,3.98
2023-01-07T23:11:48.516Z,3.88
2023-01-07T23:14:21.903Z,3.75
2023-01-07T23:16:51.167Z,3.67
2023-01-07T23:19:20.283Z,3.62
2023-01-07T23:21:51.594Z,3.63
2023-01-07T23:24:20.037Z,3.47
2023-01-07T23:26:52.353Z,3.33
2023-01-07T23:29:20.976Z,3.24
2023-01-07T23:31:48.758Z,3.39
2023-01-07T23:34:17.152Z,3.25
2023-01-07T23:36:44.932Z,3.02
2023-01-07T23:39:13.019Z,2.75
2023-01-07T23:41:40.499Z,2.54
2023-01-07T23:44:08.225Z,2.55
2023-01-07T23:46:35.750Z,2.29
2023-01-07T23:49:03.337Z,2.25
2023-01-07T23:51:30.848Z,2.25
2023-01-07T23:53:58.931Z,2.18
2023-01-07T23:56:26.396Z,2.38
2023-01-07T23:58:56.315Z,2.36
